Time;durP1;ratioP1;P1;durP2;ratioP2;P2;SDS_P1;SDS_P2;PMS_P1;PMS_P2;Temp;Humidity;BMP_temperature;BMP_pressure;BME280_temperature;BME280_humidity;BME280_pressure;Samples;Min_cycle;Max_cycle;Signal;HPM_P1;HPM_P2
2023/11/26 00:01:35;;;;;;;2.10;1.90;;;;;;;;;;4981923;28;20030;-76
2023/11/26 00:04:00;;;;;;;5.03;2.60;;;;;;;;;;4982932;28;20034;-77
2023/11/26 00:06:26;;;;;;;1.08;0.85;;;;;;;;;;4992772;28;20037;-77
2023/11/26 00:08:51;;;;;;;2.10;1.60;;;;;;;;;;4988199;28;20117;-76
2023/11/26 00:11:16;;;;;;;3.00;2.33;;;;;;;;;;4987741;28;20041;-76
2023/11/26 00:13:42;;;;;;;1.77;1.27;;;;;;;;;;4988624;28;20038;-76
2023/11/26 00:16:07;;;;;;;3.30;1.90;;;;;;;;;;4985410;28;20164;-77
2023/11/26 00:18:33;;;;;;;3.05;2.15;;;;;;;;;;4998442;28;20111;-77
2023/11/26 00:20:58;;;;;;;3.33;2.35;;;;;;;;;;4991901;28;20042;-77
2023/11/26 00:23:24;;;;;;;2.35;1.70;;;;;;;;;;4987684;28;20026;-76
2023/11/26 00:25:49;;;;;;;3.30;2.40;;;;;;;;;;4972995;28;20081;-75
2023/11/26 00:28:14;;;;;;;3.60;2.35;;;;;;;;;;4973650;28;20129;-75
2023/11/26 00:30:40;;;;;;;3.30;2.20;;;;;;;;;;4987032;28;20042;-75
2023/11/26 00:33:05;;;;;;;5.07;2.08;;;;;;;;;;4997354;28;20116;-75
2023/11/26 00:35:31;;;;;;;4.60;2.38;;;;;;;;;;4993827;28;20038;-76
2023/11/26 00:37:56;;;;;;;2.75;2.28;;;;;;;;;;4983574;28;20041;-76
2023/11/26 00:40:24;;;;;;;4.80;2.30;;;;;;;;;;4988923;28;20492;-76
2023/11/26 00:42:50;;;;;;;2.85;2.33;;;;;;;;;;4966889;28;20563;-77
2023/11/26 00:45:16;;;;;;;4.25;2.33;;;;;;;;;;4995291;28;20461;-76
2023/11/26 00:47:41;;;;;;;4.65;2.70;;;;;;;;;;5007766;28;20263;-74
2023/11/26 00:50:08;;;;;;;3.40;2.38;;;;;;;;;;5011180;28;20048;-75
2023/11/26 00:52:34;;;;;;;3.65;2.40;;;;;;;;;;5005188;28;20034;-74
2023/11/26 00:54:59;;;;;;;8.63;2.80;;;;;;;;;;4970380;28;20151;-74
2023/11/26 00:57:26;;;;;;;4.65;2.53;;;;;;;;;;5003525;28;20045;-73
2023/11/26 00:59:52;;;;;;;2.75;2.00;;;;;;;;;;4991329;28;20528;-74
2023/11/26 01:02:19;;;;;;;4.20;2.80;;;;;;;;;;4987058;28;20041;-74
2023/11/26 01:04:44;;;;;;;2.70;2.22;;;;;;;;;;4985138;28;20038;-74
2023/11/26 01:07:11;;;;;;;6.32;2.78;;;;;;;;;;4976994;28;20140;-76
2023/11/26 01:09:36;;;;;;;3.60;2.90;;;;;;;;;;4977637;28;20053;-75
2023/11/26 01:12:03;;;;;;;6.22;2.72;;;;;;;;;;4990152;28;20041;-75
2023/11/26 01:14:29;;;;;;;4.78;2.47;;;;;;;;;;4989981;28;20048;-75
2023/11/26 01:16:54;;;;;;;3.22;2.15;;;;;;;;;;4986818;28;20041;-75
2023/11/26 01:19:20;;;;;;;8.90;3.97;;;;;;;;;;4991763;28;20057;-75
2023/11/26 01:21:45;;;;;;;5.45;2.67;;;;;;;;;;4976511;28;20047;-75
2023/11/26 01:24:11;;;;;;;4.75;2.85;;;;;;;;;;4979730;28;20512;-75
2023/11/26 01:26:38;;;;;;;6.18;3.45;;;;;;;;;;4997371;28;20042;-75
2023/11/26 01:29:03;;;;;;;8.20;4.00;;;;;;;;;;4991851;28;20040;-75
2023/11/26 01:31:29;;;;;;;8.45;3.75;;;;;;;;;;4995011;28;20042;-74
2023/11/26 01:33:54;;;;;;;5.10;3.47;;;;;;;;;;4986874;28;20292;-74
2023/11/26 01:36:20;;;;;;;5.63;3.40;;;;;;;;;;4997496;28;20030;-74
2023/11/26 01:38:45;;;;;;;4.45;3.17;;;;;;;;;;4993229;28;20042;-75
2023/11/26 01:41:11;;;;;;;7.25;3.30;;;;;;;;;;5000305;28;20029;-74
2023/11/26 01:43:36;;;;;;;7.43;3.13;;;;;;;;;;4984671;28;20042;-75
2023/11/26 01:46:12;;;;;;;7.93;2.92;;;;;;;;;;4984503;28;20033;-76
2023/11/26 01:48:38;;;;;;;3.17;2.03;;;;;;;;;;4977807;28;20542;-75
2023/11/26 01:51:06;;;;;;;4.70;2.72;;;;;;;;;;4975445;28;20104;-75
2023/11/26 01:53:33;;;;;;;2.67;2.17;;;;;;;;;;4986484;28;20046;-75
2023/11/26 01:55:59;;;;;;;4.15;2.40;;;;;;;;;;4988078;28;20033;-75
2023/11/26 01:58:25;;;;;;;3.55;2.35;;;;;;;;;;4986197;28;20107;-76
2023/11/26 02:00:51;;;;;;;3.28;2.10;;;;;;;;;;4997642;28;20491;-75
2023/11/26 02:03:17;;;;;;;3.80;2.17;;;;;;;;;;4981991;28;20054;-75
2023/11/26 02:05:42;;;;;;;7.32;2.83;;;;;;;;;;4983792;28;20065;-77
2023/11/26 02:08:08;;;;;;;5.25;2.72;;;;;;;;;;4987987;28;20042;-76
2023/11/26 02:10:33;;;;;;;7.05;2.28;;;;;;;;;;4995215;28;20400;-76
2023/11/26 02:13:06;;;;;;;4.95;2.05;;;;;;;;;;4994930;28;20037;-75
2023/11/26 02:15:32;;;;;;;2.92;2.13;;;;;;;;;;4986610;28;20493;-76
2023/11/26 02:17:58;;;;;;;3.65;2.33;;;;;;;;;;4965139;28;20094;-76
2023/11/26 02:20:24;;;;;;;3.75;2.55;;;;;;;;;;4969664;28;20030;-75
2023/11/26 02:22:49;;;;;;;1.55;1.27;;;;;;;;;;4986450;28;20484;-75
2023/11/26 02:25:15;;;;;;;2.35;1.90;;;;;;;;;;4987081;28;20040;-75
2023/11/26 02:27:40;;;;;;;3.17;2.20;;;;;;;;;;4982595;28;20048;-75
2023/11/26 02:30:06;;;;;;;4.60;2.22;;;;;;;;;;4987094;28;20104;-74
2023/11/26 02:32:32;;;;;;;2.88;1.75;;;;;;;;;;4975911;28;20072;-74
2023/11/26 02:34:57;;;;;;;2.60;1.73;;;;;;;;;;4988214;28;20062;-74
2023/11/26 02:37:23;;;;;;;2.45;1.55;;;;;;;;;;4984999;28;20038;-75
2023/11/26 02:39:48;;;;;;;5.90;2.30;;;;;;;;;;4993395;28;20437;-75
2023/11/26 02:42:14;;;;;;;4.30;1.60;;;;;;;;;;4998401;28;20033;-75
2023/11/26 02:44:39;;;;;;;1.45;0.98;;;;;;;;;;4974180;28;20579;-76
2023/11/26 02:47:05;;;;;;;2.65;1.63;;;;;;;;;;4971990;28;20497;-74
2023/11/26 02:49:30;;;;;;;3.78;1.50;;;;;;;;;;4994900;28;20038;-76
2023/11/26 02:51:56;;;;;;;2.85;1.35;;;;;;;;;;4985904;28;20391;-75
2023/11/26 02:54:21;;;;;;;1.95;1.20;;;;;;;;;;4985567;28;20659;-75
2023/11/26 02:56:46;;;;;;;2.35;1.60;;;;;;;;;;4984606;28;20037;-76
2023/11/26 02:59:12;;;;;;;3.28;1.42;;;;;;;;;;4974191;28;20056;-75
2023/11/26 03:01:38;;;;;;;1.13;0.85;;;;;;;;;;4991111;28;20128;-75
2023/11/26 03:04:03;;;;;;;1.58;1.48;;;;;;;;;;4999619;28;20045;-76
2023/11/26 03:06:31;;;;;;;1.85;1.30;;;;;;;;;;4987410;28;20064;-76
2023/11/26 03:09:00;;;;;;;1.65;1.52;;;;;;;;;;4985989;28;20405;-75
2023/11/26 03:14:15;;;;;;;1.27;1.17;;;;;;;;;;4965073;28;20123;-76
2023/11/26 03:16:44;;;;;;;4.22;1.73;;;;;;;;;;4989037;28;20120;-76
2023/11/26 03:19:11;;;;;;;1.92;1.45;;;;;;;;;;4990832;28;20036;-76
2023/11/26 03:21:38;;;;;;;3.90;2.10;;;;;;;;;;4984148;28;20057;-75
2023/11/26 03:24:04;;;;;;;2.30;1.70;;;;;;;;;;4986938;28;20026;-75
2023/11/26 03:26:30;;;;;;;1.63;1.30;;;;;;;;;;4966340;28;20037;-75
2023/11/26 03:28:55;;;;;;;2.65;1.95;;;;;;;;;;4998240;28;20400;-75
2023/11/26 03:31:23;;;;;;;2.13;1.80;;;;;;;;;;5004378;28;20046;-75
2023/11/26 03:33:48;;;;;;;4.28;2.28;;;;;;;;;;4999569;28;20126;-75
2023/11/26 03:36:15;;;;;;;2.90;2.03;;;;;;;;;;4983934;28;20124;-76
2023/11/26 03:38:40;;;;;;;4.05;2.13;;;;;;;;;;4983814;28;20038;-74
2023/11/26 03:41:05;;;;;;;5.03;2.40;;;;;;;;;;4965627;28;20030;-75
2023/11/26 03:43:31;;;;;;;2.70;1.58;;;;;;;;;;4983676;28;20095;-74
2023/11/26 03:45:57;;;;;;;5.70;2.42;;;;;;;;;;4983650;28;20037;-74
2023/11/26 03:48:23;;;;;;;2.95;1.80;;;;;;;;;;4967263;28;20046;-76
2023/11/26 03:50:48;;;;;;;1.95;1.50;;;;;;;;;;4985457;28;20048;-75
2023/11/26 03:53:14;;;;;;;4.15;2.35;;;;;;;;;;4984689;28;20057;-74
2023/11/26 03:55:40;;;;;;;2.92;1.67;;;;;;;;;;4961896;28;20048;-74
2023/11/26 03:58:06;;;;;;;3.38;2.13;;;;;;;;;;4987122;28;20567;-75
2023/11/26 04:00:32;;;;;;;2.60;1.85;;;;;;;;;;4982379;28;20420;-74
2023/11/26 04:02:57;;;;;;;2.97;2.20;;;;;;;;;;4983628;28;20045;-74
2023/11/26 04:05:23;;;;;;;4.28;1.85;;;;;;;;;;4991021;28;20045;-73
2023/11/26 04:07:48;;;;;;;3.58;1.48;;;;;;;;;;4998318;28;20175;-75
2023/11/26 04:10:14;;;;;;;1.02;0.90;;;;;;;;;;4979248;28;20108;-73
2023/11/26 04:12:39;;;;;;;3.78;2.15;;;;;;;;;;5000900;28;20123;-75
2023/11/26 04:15:06;;;;;;;2.83;1.85;;;;;;;;;;5002259;28;20512;-75
2023/11/26 04:17:32;;;;;;;4.32;2.13;;;;;;;;;;5000290;28;20068;-74
2023/11/26 04:19:59;;;;;;;4.43;2.90;;;;;;;;;;4990137;28;20030;-73
2023/11/26 04:22:27;;;;;;;1.98;1.67;;;;;;;;;;4964625;28;20033;-74
2023/11/26 04:24:53;;;;;;;3.45;2.28;;;;;;;;;;4986082;28;20037;-73
2023/11/26 04:27:19;;;;;;;8.38;2.17;;;;;;;;;;4983677;28;20034;-74
2023/11/26 04:29:46;;;;;;;4.88;2.50;;;;;;;;;;4984302;28;20042;-75
2023/11/26 04:32:13;;;;;;;3.90;2.70;;;;;;;;;;4985066;28;20030;-75
2023/11/26 04:34:39;;;;;;;3.95;2.75;;;;;;;;;;4983326;28;20393;-74
2023/11/26 04:37:11;;;;;;;5.03;2.63;;;;;;;;;;4964790;28;20041;-74
2023/11/26 04:39:37;;;;;;;2.92;2.40;;;;;;;;;;4982375;28;20041;-75
2023/11/26 04:42:04;;;;;;;2.65;2.08;;;;;;;;;;4983632;28;20064;-75
2023/11/26 04:44:29;;;;;;;7.82;2.90;;;;;;;;;;4993845;28;20048;-75
2023/11/26 04:46:55;;;;;;;2.30;1.67;;;;;;;;;;4986607;28;20041;-74
2023/11/26 04:49:20;;;;;;;4.05;1.52;;;;;;;;;;4975295;28;20037;-73
2023/11/26 04:51:46;;;;;;;3.53;2.70;;;;;;;;;;4992064;28;20133;-75
2023/11/26 04:54:12;;;;;;;3.42;2.58;;;;;;;;;;5002771;28;20436;-75
2023/11/26 04:56:40;;;;;;;6.47;3.05;;;;;;;;;;4998790;28;20037;-77
2023/11/26 04:59:06;;;;;;;5.45;2.40;;;;;;;;;;4993139;28;20157;-78
2023/11/26 05:01:34;;;;;;;5.35;2.80;;;;;;;;;;4981611;28;20121;-76
2023/11/26 05:04:00;;;;;;;3.47;2.25;;;;;;;;;;4963783;28;20033;-77
2023/11/26 05:06:26;;;;;;;3.50;2.15;;;;;;;;;;4998595;28;20108;-77
2023/11/26 05:08:51;;;;;;;3.15;2.03;;;;;;;;;;5003416;28;20041;-80
2023/11/26 05:11:16;;;;;;;4.03;2.90;;;;;;;;;;4993291;28;20056;-77
2023/11/26 05:13:42;;;;;;;4.80;2.92;;;;;;;;;;4983524;28;20392;-78
2023/11/26 05:16:08;;;;;;;3.15;2.58;;;;;;;;;;4999315;28;20044;-78
2023/11/26 05:18:33;;;;;;;2.30;1.73;;;;;;;;;;4983139;28;20044;-76
2023/11/26 05:20:59;;;;;;;6.45;2.88;;;;;;;;;;4980178;28;20104;-75
2023/11/26 05:23:25;;;;;;;7.55;3.13;;;;;;;;;;4984943;28;20484;-75
2023/11/26 05:25:52;;;;;;;4.10;2.42;;;;;;;;;;4998099;28;20041;-75
2023/11/26 05:28:17;;;;;;;4.15;2.50;;;;;;;;;;5004990;28;20124;-75
2023/11/26 05:30:44;;;;;;;6.53;3.78;;;;;;;;;;4999753;28;20121;-75
2023/11/26 05:33:09;;;;;;;5.25;3.47;;;;;;;;;;4984109;28;20622;-75
2023/11/26 05:35:36;;;;;;;6.63;3.08;;;;;;;;;;4999860;28;20129;-75
2023/11/26 05:38:03;;;;;;;8.25;3.83;;;;;;;;;;4987727;28;20061;-75
2023/11/26 05:40:29;;;;;;;3.95;2.88;;;;;;;;;;4988075;28;20025;-75
2023/11/26 05:42:55;;;;;;;5.28;3.80;;;;;;;;;;4986574;28;20405;-76
2023/11/26 05:45:21;;;;;;;4.88;2.85;;;;;;;;;;4974492;28;20026;-75
2023/11/26 05:47:46;;;;;;;7.85;4.28;;;;;;;;;;4999935;28;20054;-76
2023/11/26 05:50:12;;;;;;;7.40;3.25;;;;;;;;;;5005620;28;20052;-74
2023/11/26 05:52:37;;;;;;;5.45;3.70;;;;;;;;;;4996153;28;20606;-74
2023/11/26 05:55:04;;;;;;;7.20;4.03;;;;;;;;;;4991688;28;20057;-75
2023/11/26 05:57:31;;;;;;;7.13;3.72;;;;;;;;;;4981291;28;20034;-75
2023/11/26 05:59:57;;;;;;;4.38;3.25;;;;;;;;;;4966270;28;20048;-74
2023/11/26 06:02:22;;;;;;;5.68;3.38;;;;;;;;;;4991419;28;20033;-76
2023/11/26 06:04:48;;;;;;;7.60;3.35;;;;;;;;;;4985091;28;20042;-76
2023/11/26 06:07:14;;;;;;;5.30;2.60;;;;;;;;;;4984842;28;20045;-77
2023/11/26 06:09:39;;;;;;;4.93;3.30;;;;;;;;;;4989511;28;20030;-76
2023/11/26 06:12:05;;;;;;;5.95;3.22;;;;;;;;;;5001853;28;20088;-76
2023/11/26 06:14:31;;;;;;;7.55;3.30;;;;;;;;;;4961112;28;20042;-75
2023/11/26 06:16:56;;;;;;;5.57;1.20;;;;;;;;;;5000551;28;20870;-77
2023/11/26 06:19:22;;;;;;;4.15;2.67;;;;;;;;;;4988782;28;20512;-76
2023/11/26 06:21:47;;;;;;;5.18;3.17;;;;;;;;;;4990263;28;20547;-76
2023/11/26 06:24:13;;;;;;;2.22;1.40;;;;;;;;;;5003073;28;20037;-76
2023/11/26 06:26:40;;;;;;;3.40;1.77;;;;;;;;;;4998062;28;20132;-76
2023/11/26 06:29:06;;;;;;;3.55;1.95;;;;;;;;;;4976975;28;20117;-77
2023/11/26 06:31:31;;;;;;;1.33;1.17;;;;;;;;;;5004867;28;20575;-76
2023/11/26 06:33:57;;;;;;;4.60;2.03;;;;;;;;;;5001537;28;20587;-76
2023/11/26 06:36:24;;;;;;;2.55;1.45;;;;;;;;;;5002486;28;20041;-76
2023/11/26 06:38:54;;;;;;;6.50;1.88;;;;;;;;;;4999534;28;20535;-76
2023/11/26 06:41:24;;;;;;;6.22;2.45;;;;;;;;;;4980729;28;20034;-76
2023/11/26 06:43:54;;;;;;;4.85;2.50;;;;;;;;;;4952954;28;20196;-76
2023/11/26 06:46:20;;;;;;;4.25;2.08;;;;;;;;;;4968538;28;20052;-76
2023/11/26 06:48:46;;;;;;;2.30;1.38;;;;;;;;;;4985517;28;20100;-75
2023/11/26 06:51:14;;;;;;;8.02;2.35;;;;;;;;;;4993656;28;20045;-76
2023/11/26 06:53:40;;;;;;;6.00;2.05;;;;;;;;;;4995579;28;20037;-76
2023/11/26 06:56:09;;;;;;;4.20;1.95;;;;;;;;;;4982616;28;20138;-76
2023/11/26 06:58:37;;;;;;;8.05;3.13;;;;;;;;;;5015310;28;20036;-76
2023/11/26 07:01:03;;;;;;;5.20;2.67;;;;;;;;;;5011029;28;20550;-76
2023/11/26 07:03:31;;;;;;;4.50;2.17;;;;;;;;;;5003615;28;20040;-76
2023/11/26 07:05:56;;;;;;;2.20;1.67;;;;;;;;;;5007903;28;20070;-76
2023/11/26 07:08:21;;;;;;;5.47;2.92;;;;;;;;;;5003339;28;20487;-75
2023/11/26 07:10:47;;;;;;;3.97;2.10;;;;;;;;;;4996223;28;20134;-75
2023/11/26 07:13:12;;;;;;;6.05;2.30;;;;;;;;;;5003517;28;20037;-75
2023/11/26 07:15:40;;;;;;;6.70;2.38;;;;;;;;;;4985915;28;20045;-75
2023/11/26 07:18:06;;;;;;;4.05;2.17;;;;;;;;;;5011519;28;20435;-75
2023/11/26 07:20:31;;;;;;;4.85;2.70;;;;;;;;;;5013475;28;20032;-75
2023/11/26 07:22:58;;;;;;;5.03;2.08;;;;;;;;;;4982003;28;20550;-75
2023/11/26 07:25:23;;;;;;;4.80;2.70;;;;;;;;;;5005810;28;20056;-75
2023/11/26 07:27:50;;;;;;;5.53;3.75;;;;;;;;;;5009910;28;20084;-75
2023/11/26 07:30:15;;;;;;;2.83;1.80;;;;;;;;;;5015817;28;20041;-74
2023/11/26 07:32:44;;;;;;;2.70;1.38;;;;;;;;;;5014845;28;20465;-74
2023/11/26 07:35:10;;;;;;;4.35;2.03;;;;;;;;;;4998553;28;20248;-75
2023/11/26 07:37:36;;;;;;;3.35;2.13;;;;;;;;;;4960732;28;20050;-75
2023/11/26 07:40:05;;;;;;;4.57;2.63;;;;;;;;;;4980501;28;20088;-75
2023/11/26 07:42:33;;;;;;;2.85;1.30;;;;;;;;;;4979711;28;20523;-76
2023/11/26 07:44:59;;;;;;;3.95;2.72;;;;;;;;;;4991137;28;20045;-74
2023/11/26 07:47:24;;;;;;;1.52;1.10;;;;;;;;;;5003196;28;20041;-75
2023/11/26 07:49:50;;;;;;;3.10;1.88;;;;;;;;;;4993894;28;20044;-75
2023/11/26 07:52:16;;;;;;;5.80;2.75;;;;;;;;;;5004084;28;20064;-74
2023/11/26 07:54:41;;;;;;;9.13;3.85;;;;;;;;;;5005365;28;20448;-75
2023/11/26 07:57:07;;;;;;;5.45;2.72;;;;;;;;;;5006370;28;20037;-75
2023/11/26 07:59:32;;;;;;;9.23;3.67;;;;;;;;;;5002015;28;20037;-74
2023/11/26 08:01:58;;;;;;;4.32;1.80;;;;;;;;;;5019465;28;20617;-74
2023/11/26 08:04:26;;;;;;;3.50;2.20;;;;;;;;;;5010741;28;20075;-74
2023/11/26 08:06:52;;;;;;;6.68;3.70;;;;;;;;;;4991436;28;20050;-74
2023/11/26 08:09:18;;;;;;;5.30;2.50;;;;;;;;;;4986102;28;20042;-73
2023/11/26 08:11:47;;;;;;;6.70;3.03;;;;;;;;;;4973198;28;20038;-74
2023/11/26 08:14:13;;;;;;;3.83;2.45;;;;;;;;;;4964391;28;20035;-74
2023/11/26 08:16:40;;;;;;;4.97;1.67;;;;;;;;;;4961118;28;20560;-74
2023/11/26 08:19:11;;;;;;;8.15;2.95;;;;;;;;;;4946095;28;20050;-75
2023/11/26 08:21:37;;;;;;;6.88;4.15;;;;;;;;;;4978251;28;20088;-75
2023/11/26 08:24:07;;;;;;;7.40;3.17;;;;;;;;;;4973597;28;20034;-76
2023/11/26 08:26:35;;;;;;;1.80;1.33;;;;;;;;;;4971729;28;20565;-75
2023/11/26 08:29:01;;;;;;;5.93;3.15;;;;;;;;;;4991988;28;20029;-74
2023/11/26 08:31:27;;;;;;;4.65;2.05;;;;;;;;;;4955424;28;20156;-74
2023/11/26 08:33:55;;;;;;;3.20;1.90;;;;;;;;;;4974240;28;20042;-74
2023/11/26 08:36:20;;;;;;;3.67;2.00;;;;;;;;;;4980241;28;20034;-74
2023/11/26 08:38:47;;;;;;;5.93;2.67;;;;;;;;;;4977361;28;20555;-74
2023/11/26 08:41:14;;;;;;;3.47;2.03;;;;;;;;;;4992206;28;20123;-73
2023/11/26 08:43:43;;;;;;;5.03;2.85;;;;;;;;;;5002297;28;20037;-73
2023/11/26 08:46:10;;;;;;;6.55;3.17;;;;;;;;;;4984658;28;20045;-73
2023/11/26 08:48:36;;;;;;;6.22;3.22;;;;;;;;;;5017153;28;20033;-73
2023/11/26 08:51:02;;;;;;;5.53;2.55;;;;;;;;;;5020200;28;20057;-73
2023/11/26 08:53:29;;;;;;;10.35;4.80;;;;;;;;;;4991906;28;20030;-73
2023/11/26 08:55:56;;;;;;;9.85;4.60;;;;;;;;;;4991737;28;20042;-73
2023/11/26 08:58:21;;;;;;;11.48;4.80;;;;;;;;;;5009046;28;20879;-73
2023/11/26 09:00:47;;;;;;;13.75;6.15;;;;;;;;;;4989834;28;20055;-72
2023/11/26 09:03:12;;;;;;;7.20;3.38;;;;;;;;;;4998540;28;20091;-73
2023/11/26 09:05:39;;;;;;;10.18;4.25;;;;;;;;;;5007516;28;20071;-72
2023/11/26 09:08:05;;;;;;;8.50;3.78;;;;;;;;;;5024467;28;20029;-72
2023/11/26 09:10:30;;;;;;;13.20;5.90;;;;;;;;;;5016863;28;20523;-73
2023/11/26 09:12:56;;;;;;;4.22;2.80;;;;;;;;;;5003003;28;20077;-74
2023/11/26 09:15:25;;;;;;;8.90;4.30;;;;;;;;;;4996870;28;20049;-73
2023/11/26 09:17:51;;;;;;;8.45;4.32;;;;;;;;;;5017413;28;20040;-73
2023/11/26 09:20:17;;;;;;;10.40;4.25;;;;;;;;;;5002741;28;20045;-73
2023/11/26 09:22:42;;;;;;;5.68;2.80;;;;;;;;;;5002394;28;20037;-72
2023/11/26 09:25:09;;;;;;;6.70;3.45;;;;;;;;;;5011107;28;20036;-74
2023/11/26 09:27:35;;;;;;;10.10;5.10;;;;;;;;;;4986154;28;20041;-73
2023/11/26 09:30:04;;;;;;;3.22;1.48;;;;;;;;;;4987645;28;20045;-73
2023/11/26 09:32:30;;;;;;;5.38;2.38;;;;;;;;;;4998011;28;20064;-75
2023/11/26 09:34:55;;;;;;;6.70;2.95;;;;;;;;;;4997529;28;20679;-73
2023/11/26 09:37:20;;;;;;;12.48;5.70;;;;;;;;;;5002196;28;20065;-73
2023/11/26 09:39:46;;;;;;;7.70;3.78;;;;;;;;;;4995251;28;20084;-73
2023/11/26 09:42:12;;;;;;;8.68;4.30;;;;;;;;;;4986808;28;20073;-72
2023/11/26 09:44:44;;;;;;;22.50;7.43;;;;;;;;;;5005332;28;20621;-73
2023/11/26 09:47:10;;;;;;;63.50;17.58;;;;;;;;;;5007487;28;20686;-73
2023/11/26 09:49:37;;;;;;;19.83;7.03;;;;;;;;;;5006468;28;20629;-73
2023/11/26 09:52:03;;;;;;;7.60;4.30;;;;;;;;;;5009293;28;20048;-72
2023/11/26 09:54:29;;;;;;;32.75;11.65;;;;;;;;;;4989582;28;20404;-74
2023/11/26 09:56:58;;;;;;;30.85;10.77;;;;;;;;;;5008565;28;20467;-73
2023/11/26 09:59:28;;;;;;;25.15;10.20;;;;;;;;;;5005394;28;20042;-75
2023/11/26 10:01:54;;;;;;;38.00;12.55;;;;;;;;;;4987379;28;20559;-74
2023/11/26 10:04:21;;;;;;;3.95;2.50;;;;;;;;;;5000618;28;20037;-75
2023/11/26 10:06:51;;;;;;;12.10;5.05;;;;;;;;;;5006190;28;20037;-74
2023/11/26 10:09:17;;;;;;;17.83;7.07;;;;;;;;;;4949878;28;20035;-73
2023/11/26 10:11:43;;;;;;;12.40;6.68;;;;;;;;;;5005800;28;20055;-74
2023/11/26 10:14:21;;;;;;;4.18;2.00;;;;;;;;;;5011863;28;20151;-72
2023/11/26 10:16:47;;;;;;;6.25;2.90;;;;;;;;;;5006651;28;20041;-73
2023/11/26 10:19:23;;;;;;;12.70;5.70;;;;;;;;;;4987567;28;20034;-73
2023/11/26 10:22:00;;;;;;;16.90;7.82;;;;;;;;;;4943329;28;20062;-73
2023/11/26 10:24:30;;;;;;;9.80;4.28;;;;;;;;;;4999951;28;20467;-73
2023/11/26 10:26:57;;;;;;;8.88;4.88;;;;;;;;;;5001771;28;20041;-73
2023/11/26 10:29:30;;;;;;;11.10;5.50;;;;;;;;;;4995215;28;20033;-74
2023/11/26 10:31:59;;;;;;;10.07;4.57;;;;;;;;;;4958943;28;20670;-71
2023/11/26 10:34:26;;;;;;;4.43;2.40;;;;;;;;;;4995440;28;20468;-73
2023/11/26 10:36:52;;;;;;;11.88;5.53;;;;;;;;;;4996830;28;20551;-73
2023/11/26 10:39:17;;;;;;;7.03;3.25;;;;;;;;;;5002499;28;20042;-72
2023/11/26 10:41:45;;;;;;;9.75;3.53;;;;;;;;;;4981592;28;20038;-72
2023/11/26 10:44:12;;;;;;;5.88;3.40;;;;;;;;;;4992427;28;21386;-73
2023/11/26 10:46:43;;;;;;;11.32;4.30;;;;;;;;;;4982539;28;20036;-72
2023/11/26 10:49:21;;;;;;;7.13;3.72;;;;;;;;;;5000804;28;20034;-73
2023/11/26 10:52:10;;;;;;;7.22;4.05;;;;;;;;;;5005136;28;20064;-73
2023/11/26 10:54:54;;;;;;;3.50;1.73;;;;;;;;;;5008214;28;20037;-71
2023/11/26 10:57:45;;;;;;;8.25;4.75;;;;;;;;;;4951389;28;20043;-72
2023/11/26 11:00:18;;;;;;;8.20;2.80;;;;;;;;;;5001237;28;20064;-72
2023/11/26 11:02:45;;;;;;;10.15;4.43;;;;;;;;;;5003905;28;20041;-72
2023/11/26 11:05:11;;;;;;;8.05;3.50;;;;;;;;;;4991191;28;20037;-73
2023/11/26 11:07:38;;;;;;;7.10;3.83;;;;;;;;;;4975532;28;20045;-72
2023/11/26 11:10:31;;;;;;;8.88;4.28;;;;;;;;;;4991139;28;20037;-74
2023/11/26 11:13:16;;;;;;;7.78;3.85;;;;;;;;;;4986432;28;20061;-74
2023/11/26 11:15:45;;;;;;;9.82;4.95;;;;;;;;;;4997828;28;20081;-74
2023/11/26 11:18:30;;;;;;;5.32;3.10;;;;;;;;;;4982375;28;20042;-71
2023/11/26 11:21:21;;;;;;;9.75;3.80;;;;;;;;;;4988325;28;20463;-72
2023/11/26 11:23:49;;;;;;;15.63;6.05;;;;;;;;;;5003601;28;20029;-74
2023/11/26 11:26:16;;;;;;;8.80;4.32;;;;;;;;;;4987018;28;20042;-73
2023/11/26 11:28:47;;;;;;;6.50;3.10;;;;;;;;;;5010823;28;20041;-72
2023/11/26 11:31:20;;;;;;;8.05;4.05;;;;;;;;;;4998762;28;20132;-72
2023/11/26 11:33:58;;;;;;;9.48;4.22;;;;;;;;;;4975640;28;20117;-72
2023/11/26 11:36:41;;;;;;;10.05;4.22;;;;;;;;;;5006131;28;20033;-72
2023/11/26 11:39:14;;;;;;;10.75;4.43;;;;;;;;;;4962890;28;20042;-72
2023/11/26 11:41:57;;;;;;;6.95;3.28;;;;;;;;;;4978982;28;20055;-73
2023/11/26 11:44:28;;;;;;;8.27;4.03;;;;;;;;;;5002931;28;20034;-72
2023/11/26 11:47:01;;;;;;;7.75;4.18;;;;;;;;;;4980931;28;20045;-71
2023/11/26 11:49:46;;;;;;;9.95;4.07;;;;;;;;;;4948563;28;20169;-71
2023/11/26 11:52:13;;;;;;;2.88;2.22;;;;;;;;;;4996267;28;20040;-73
2023/11/26 11:54:57;;;;;;;7.70;3.75;;;;;;;;;;4994491;28;20072;-73
2023/11/26 11:57:24;;;;;;;8.23;4.05;;;;;;;;;;4998120;28;20037;-73
2023/11/26 11:59:51;;;;;;;6.95;3.38;;;;;;;;;;4974066;28;20076;-75
2023/11/26 12:02:16;;;;;;;4.15;2.47;;;;;;;;;;4998020;28;20042;-73
2023/11/26 12:04:46;;;;;;;3.15;2.10;;;;;;;;;;4991563;28;20045;-73
2023/11/26 12:07:12;;;;;;;3.13;2.22;;;;;;;;;;4987283;28;20059;-73
2023/11/26 12:09:38;;;;;;;3.35;2.28;;;;;;;;;;4983790;28;20112;-74
2023/11/26 12:12:04;;;;;;;2.67;1.70;;;;;;;;;;4990158;28;20037;-73
2023/11/26 12:14:31;;;;;;;3.30;1.75;;;;;;;;;;4956866;28;20078;-73
2023/11/26 12:16:57;;;;;;;2.88;1.98;;;;;;;;;;4998364;28;20044;-73
2023/11/26 12:19:22;;;;;;;2.95;2.03;;;;;;;;;;4966606;28;20152;-73
2023/11/26 12:21:49;;;;;;;2.30;1.70;;;;;;;;;;4991104;28;20072;-74
2023/11/26 12:24:23;;;;;;;4.03;2.10;;;;;;;;;;4983822;28;20543;-75
2023/11/26 12:26:49;;;;;;;4.18;2.85;;;;;;;;;;4970800;28;20061;-74
2023/11/26 12:29:34;;;;;;;3.80;2.30;;;;;;;;;;4989080;28;20135;-73
2023/11/26 12:32:05;;;;;;;4.43;2.75;;;;;;;;;;4981399;28;20096;-73
2023/11/26 12:34:39;;;;;;;4.38;2.53;;;;;;;;;;4986536;28;20034;-72
2023/11/26 12:37:09;;;;;;;2.33;1.80;;;;;;;;;;4972509;28;20142;-73
2023/11/26 12:39:38;;;;;;;3.38;2.30;;;;;;;;;;4988456;28;20297;-72
2023/11/26 12:42:05;;;;;;;3.60;2.10;;;;;;;;;;4997225;28;20049;-73
2023/11/26 12:44:33;;;;;;;2.67;2.10;;;;;;;;;;4997584;28;20033;-72
2023/11/26 12:47:11;;;;;;;3.55;2.15;;;;;;;;;;4991326;28;20029;-72
2023/11/26 12:49:39;;;;;;;2.92;1.77;;;;;;;;;;4977106;28;20038;-76
2023/11/26 12:52:08;;;;;;;2.83;2.00;;;;;;;;;;4997654;28;20694;-75
2023/11/26 12:54:34;;;;;;;3.22;2.20;;;;;;;;;;4996960;28;20068;-74
2023/11/26 12:57:00;;;;;;;3.33;2.58;;;;;;;;;;4984489;28;20038;-77
2023/11/26 12:59:25;;;;;;;2.50;2.05;;;;;;;;;;4990826;28;20115;-73
2023/11/26 13:01:51;;;;;;;4.13;3.30;;;;;;;;;;4990826;28;20056;-73
2023/11/26 13:04:27;;;;;;;10.23;8.52;;;;;;;;;;4985350;28;20029;-72
2023/11/26 13:06:54;;;;;;;14.38;7.20;;;;;;;;;;5010841;28;20037;-73
2023/11/26 13:09:20;;;;;;;6.65;4.25;;;;;;;;;;5003021;28;20584;-73
2023/11/26 13:11:46;;;;;;;7.72;4.60;;;;;;;;;;5007688;28;20150;-73
2023/11/26 13:14:20;;;;;;;8.48;5.95;;;;;;;;;;4991897;28;20048;-77
2023/11/26 13:16:46;;;;;;;10.65;5.43;;;;;;;;;;4984288;28;20091;-73
2023/11/26 13:19:12;;;;;;;10.55;6.53;;;;;;;;;;5001858;28;20519;-73
2023/11/26 13:21:48;;;;;;;8.85;5.35;;;;;;;;;;4996682;28;20129;-75
2023/11/26 13:24:14;;;;;;;8.63;5.15;;;;;;;;;;4995117;28;20045;-72
2023/11/26 13:26:39;;;;;;;8.23;4.88;;;;;;;;;;4999034;28;20041;-73
2023/11/26 13:29:05;;;;;;;8.77;5.38;;;;;;;;;;5001365;28;20048;-72
2023/11/26 13:31:30;;;;;;;7.47;4.85;;;;;;;;;;4974209;28;20128;-72
2023/11/26 13:33:56;;;;;;;7.15;4.03;;;;;;;;;;4984295;28;20467;-71
2023/11/26 13:36:21;;;;;;;27.38;12.18;;;;;;;;;;4998346;28;20063;-73
2023/11/26 13:38:46;;;;;;;4.43;3.80;;;;;;;;;;4995631;28;20128;-72
2023/11/26 13:41:13;;;;;;;6.35;3.35;;;;;;;;;;5002852;28;20033;-72
2023/11/26 13:43:38;;;;;;;5.03;3.97;;;;;;;;;;5002732;28;20037;-72
2023/11/26 13:46:04;;;;;;;7.43;5.00;;;;;;;;;;4982469;28;20057;-73
2023/11/26 13:48:29;;;;;;;14.73;8.05;;;;;;;;;;4993558;28;20045;-75
2023/11/26 13:50:55;;;;;;;8.85;5.75;;;;;;;;;;4984020;28;20042;-73
2023/11/26 13:53:22;;;;;;;8.50;4.70;;;;;;;;;;4991824;28;20040;-74
2023/11/26 13:55:48;;;;;;;7.00;3.97;;;;;;;;;;5013866;28;20779;-73
2023/11/26 13:58:15;;;;;;;7.60;4.25;;;;;;;;;;4997361;28;20136;-73
2023/11/26 14:00:41;;;;;;;6.32;4.10;;;;;;;;;;4971857;28;21635;-72
2023/11/26 14:03:08;;;;;;;10.45;5.35;;;;;;;;;;5006227;28;20037;-73
2023/11/26 14:05:33;;;;;;;5.82;3.40;;;;;;;;;;5005237;28;20629;-72
2023/11/26 14:07:59;;;;;;;7.28;4.20;;;;;;;;;;4995772;28;20045;-74
2023/11/26 14:10:26;;;;;;;7.05;4.30;;;;;;;;;;4992653;28;20067;-77
2023/11/26 14:12:52;;;;;;;8.23;4.35;;;;;;;;;;4974057;28;20116;-74
2023/11/26 14:15:18;;;;;;;9.60;5.88;;;;;;;;;;4977061;28;20054;-73
2023/11/26 14:17:47;;;;;;;10.10;5.10;;;;;;;;;;4994042;28;20045;-74
2023/11/26 14:20:15;;;;;;;10.40;6.03;;;;;;;;;;4990217;28;20636;-73
2023/11/26 14:22:42;;;;;;;14.77;7.50;;;;;;;;;;4991847;28;20038;-72
2023/11/26 14:25:11;;;;;;;20.77;10.65;;;;;;;;;;4997444;28;20033;-73
2023/11/26 14:27:36;;;;;;;19.17;9.93;;;;;;;;;;4968840;28;20046;-72
2023/11/26 14:30:03;;;;;;;13.27;7.53;;;;;;;;;;4986534;28;20404;-72
2023/11/26 14:32:28;;;;;;;14.82;7.35;;;;;;;;;;4999228;28;20053;-73
2023/11/26 14:34:54;;;;;;;9.10;4.40;;;;;;;;;;5004722;28;21392;-72
2023/11/26 14:37:22;;;;;;;6.88;4.20;;;;;;;;;;4996187;28;20044;-72
2023/11/26 14:39:51;;;;;;;11.70;7.60;;;;;;;;;;4977794;28;20539;-72
2023/11/26 14:42:18;;;;;;;11.57;5.90;;;;;;;;;;5000996;28;20041;-73
2023/11/26 14:44:43;;;;;;;9.45;5.05;;;;;;;;;;4984140;28;20038;-73